Time,TemperatureF,DewpointF,PressureIn,WindDirection,WindDirectionDegrees,WindSpeedMPH,WindSpeedGustMPH,Humidity,HourlyPrecipIn,Conditions,Clouds,dailyrainin,SoftwareType,DateUTC
2013-02-08 00:01:00,35.1,34.0,30.02,ESE,121,0.0,0.0,95,0.00,,,0.00,weatherlink.com 1.10,2013-02-08 08:01:00,
2013-02-08 00:16:00,34.6,33.0,30.01,ESE,120,0.0,0.0,95,0.00,,,0.00,weatherlink.com 1.10,2013-02-08 08:16:00,
2013-02-08 00:31:00,34.1,33.0,30.00,ESE,120,0.0,0.0,95,0.00,,,0.00,weatherlink.com 1.10,2013-02-08 08:31:00,
2013-02-08 00:46:00,34.1,33.0,30.00,ESE,120,0.0,0.0,95,0.00,,,0.00,weatherlink.com 1.10,2013-02-08 08:46:00,
2013-02-08 01:01:00,34.2,33.0,30.00,ESE,120,0.0,0.0,95,0.00,,,0.00,weatherlink.com 1.10,2013-02-08 09:01:00,
2013-02-08 01:16:00,34.1,33.0,29.99,ESE,120,0.0,0.0,95,0.00,,,0.00,weatherlink.com 1.10,2013-02-08 09:16:00,
2013-02-08 01:31:00,34.1,33.0,29.99,ESE,120,0.0,0.0,95,0.00,,,0.00,weatherlink.com 1.10,2013-02-08 09:31:00,
2013-02-08 01:46:00,33.8,33.0,29.99,ESE,120,0.0,0.0,95,0.00,,,0.00,weatherlink.com 1.10,2013-02-08 09:46:00,
2013-02-08 02:01:00,33.8,33.0,29.99,ESE,120,0.0,0.0,95,0.00,,,0.00,weatherlink.com 1.10,2013-02-08 10:01:00,
2013-02-08 02:16:00,33.8,33.0,29.98,ESE,120,0.0,0.0,95,0.00,,,0.00,weatherlink.com 1.10,2013-02-08 10:16:00,
2013-02-08 02:31:00,33.3,32.0,29.98,ESE,120,0.0,0.0,95,0.00,,,0.00,weatherlink.com 1.10,2013-02-08 10:31:00,
2013-02-08 02:46:00,32.9,32.0,29.98,ESE,120,0.0,0.0,95,0.00,,,0.00,weatherlink.com 1.10,2013-02-08 10:46:00,
2013-02-08 03:01:00,32.8,32.0,29.97,ESE,120,0.0,0.0,95,0.00,,,0.00,weatherlink.com 1.10,2013-02-08 11:01:00,
2013-02-08 03:16:00,32.8,32.0,29.97,ESE,120,0.0,0.0,95,0.00,,,0.00,weatherlink.com 1.10,2013-02-08 11:16:00,
2013-02-08 03:31:00,33.0,32.0,29.97,ESE,120,0.0,0.0,95,0.00,,,0.00,weatherlink.com 1.10,2013-02-08 11:31:00,
2013-02-08 03:46:00,33.5,32.0,29.97,SSE,161,0.0,1.0,95,0.00,,,0.00,weatherlink.com 1.10,2013-02-08 11:46:00,
2013-02-08 04:01:00,33.0,32.0,29.97,SSE,161,0.0,0.0,95,0.00,,,0.00,weatherlink.com 1.10,2013-02-08 12:01:00,
2013-02-08 04:16:00,33.1,32.0,29.97,SSE,161,0.0,1.0,96,0.00,,,0.00,weatherlink.com 1.10,2013-02-08 12:16:00,
2013-02-08 04:31:00,33.4,32.0,29.98,SSE,161,0.0,0.0,95,0.00,,,0.00,weatherlink.com 1.10,2013-02-08 12:31:00,
2013-02-08 04:46:00,33.1,32.0,29.98,SSE,161,0.0,1.0,96,0.00,,,0.00,weatherlink.com 1.10,2013-02-08 12:46:00,
2013-02-08 05:01:00,32.9,32.0,29.98,SSE,161,0.0,0.0,95,0.00,,,0.00,weatherlink.com 1.10,2013-02-08 13:01:00,
2013-02-08 05:16:00,33.0,32.0,29.98,SSE,161,0.0,1.0,95,0.00,,,0.00,weatherlink.com 1.10,2013-02-08 13:16:00,
2013-02-08 05:31:00,33.8,33.0,29.98,SSE,166,1.0,2.0,96,0.00,,,0.00,weatherlink.com 1.10,2013-02-08 13:31:00,
2013-02-08 05:46:00,34.4,33.0,29.98,ESE,109,0.0,1.0,96,0.00,,,0.00,weatherlink.com 1.10,2013-02-08 13:46:00,
2013-02-08 06:01:00,34.1,33.0,29.99,South,180,0.0,1.0,96,0.00,,,0.00,weatherlink.com 1.10,2013-02-08 14:01:00,
2013-02-08 06:16:00,34.3,33.0,29.99,South,179,2.0,2.0,96,0.00,,,0.00,weatherlink.com 1.10,2013-02-08 14:16:00,
2013-02-08 06:31:00,33.5,33.0,30.00,South,179,0.0,1.0,96,0.00,,,0.00,weatherlink.com 1.10,2013-02-08 14:31:00,
2013-02-08 06:46:00,33.0,32.0,30.00,South,179,0.0,1.0,96,0.00,,,0.00,weatherlink.com 1.10,2013-02-08 14:46:00,
2013-02-08 07:01:00,32.5,32.0,30.01,South,179,0.0,1.0,96,0.00,,,0.00,weatherlink.com 1.10,2013-02-08 15:01:00,
2013-02-08 07:16:00,32.3,31.0,30.01,South,179,0.0,0.0,95,0.00,,,0.00,weatherlink.com 1.10,2013-02-08 15:16:00,
2013-02-08 07:31:00,32.0,31.0,30.02,South,179,0.0,1.0,96,0.00,,,0.00,weatherlink.com 1.10,2013-02-08 15:31:00,
2013-02-08 07:49:00,32.4,31.0,30.02,South,179,0.0,2.0,96,0.00,,,0.00,weatherlink.com 1.10,2013-02-08 15:49:00,
2013-02-08 08:01:00,32.7,32.0,30.02,South,179,0.0,1.0,96,0.00,,,0.00,weatherlink.com 1.10,2013-02-08 16:01:00,
2013-02-08 08:16:00,33.1,32.0,30.03,South,179,0.0,1.0,96,0.00,,,0.00,weatherlink.com 1.10,2013-02-08 16:16:00,
2013-02-08 08:31:00,33.9,33.0,30.03,South,179,0.0,2.0,96,0.00,,,0.00,weatherlink.com 1.10,2013-02-08 16:31:00,
2013-02-08 08:47:00,34.9,34.0,30.04,South,179,0.0,0.0,96,0.00,,,0.00,weatherlink.com 1.10,2013-02-08 16:47:00,
2013-02-08 09:02:00,37.5,37.0,30.04,South,179,0.0,0.0,96,0.00,,,0.00,weatherlink.com 1.10,2013-02-08 17:02:00,
2013-02-08 09:17:00,38.0,37.0,30.04,South,179,0.0,0.0,96,0.00,,,0.00,weatherlink.com 1.10,2013-02-08 17:17:00,
2013-02-08 09:32:00,39.1,38.0,30.04,South,179,0.0,0.0,96,0.00,,,0.00,weatherlink.com 1.10,2013-02-08 17:32:00,
2013-02-08 09:47:00,39.7,39.0,30.04,SSW,209,1.0,5.0,96,0.00,,,0.00,weatherlink.com 1.10,2013-02-08 17:47:00,
2013-02-08 10:02:00,42.7,41.0,30.04,SSW,193,2.0,5.0,94,0.00,,,0.00,weatherlink.com 1.10,2013-02-08 18:02:00,
2013-02-08 10:17:00,43.4,40.0,30.05,North,350,0.0,4.0,88,0.00,,,0.00,weatherlink.com 1.10,2013-02-08 18:17:00,
2013-02-08 10:32:00,42.8,39.0,30.05,ESE,112,0.0,3.0,85,0.00,,,0.00,weatherlink.com 1.10,2013-02-08 18:32:00,
2013-02-08 10:47:00,43.4,38.0,30.05,NW,309,0.0,5.0,81,0.00,,,0.00,weatherlink.com 1.10,2013-02-08 18:47:00,
2013-02-08 11:02:00,45.8,40.0,30.04,SW,232,0.0,8.0,79,0.00,,,0.00,weatherlink.com 1.10,2013-02-08 19:02:00,
2013-02-08 11:17:00,45.0,39.0,30.04,SSW,198,0.0,6.0,80,0.00,,,0.00,weatherlink.com 1.10,2013-02-08 19:17:00,
2013-02-08 11:32:00,45.2,39.0,30.04,South,175,1.0,4.0,78,0.00,,,0.00,weatherlink.com 1.10,2013-02-08 19:32:00,
2013-02-08 11:47:00,47.7,36.0,30.03,ESE,116,0.0,7.0,64,0.00,,,0.00,weatherlink.com 1.10,2013-02-08 19:47:00,
2013-02-08 12:02:00,48.3,37.0,30.03,SSW,212,1.0,7.0,64,0.00,,,0.00,weatherlink.com 1.10,2013-02-08 20:02:00,
2013-02-08 12:17:00,49.2,35.0,30.03,South,189,3.0,4.0,59,0.00,,,0.00,weatherlink.com 1.10,2013-02-08 20:17:00,
2013-02-08 12:32:00,49.8,35.0,30.02,SSW,192,0.0,3.0,58,0.00,,,0.00,weatherlink.com 1.10,2013-02-08 20:32:00,
2013-02-08 12:47:00,50.2,38.0,30.02,South,180,1.0,5.0,64,0.00,,,0.00,weatherlink.com 1.10,2013-02-08 20:47:00,
2013-02-08 13:02:00,49.9,37.0,30.01,East,95,2.0,4.0,62,0.00,,,0.00,weatherlink.com 1.10,2013-02-08 21:02:00,
2013-02-08 13:18:00,50.9,37.0,30.01,ESE,113,0.0,6.0,59,0.00,,,0.00,weatherlink.com 1.10,2013-02-08 21:18:00,
2013-02-08 13:32:00,51.2,40.0,30.01,SSE,157,0.0,3.0,65,0.00,,,0.00,weatherlink.com 1.10,2013-02-08 21:32:00,
2013-02-08 13:48:00,51.4,39.0,30.00,East,79,0.0,3.0,64,0.00,,,0.00,weatherlink.com 1.10,2013-02-08 21:48:00,
2013-02-08 14:02:00,51.8,42.0,29.99,SE,141,0.0,4.0,70,0.00,,,0.00,weatherlink.com 1.10,2013-02-08 22:02:00,
2013-02-08 14:17:00,51.8,41.0,29.99,East,89,0.0,6.0,68,0.00,,,0.00,weatherlink.com 1.10,2013-02-08 22:17:00,
2013-02-08 14:32:00,50.1,37.0,29.99,South,184,1.0,4.0,61,0.00,,,0.00,weatherlink.com 1.10,2013-02-08 22:32:00,
2013-02-08 14:47:00,50.1,42.0,29.99,SE,129,0.0,3.0,74,0.00,,,0.00,weatherlink.com 1.10,2013-02-08 22:47:00,
2013-02-08 15:02:00,49.1,40.0,29.99,SW,229,0.0,4.0,72,0.00,,,0.00,weatherlink.com 1.10,2013-02-08 23:02:00,
2013-02-08 15:17:00,48.3,42.0,29.99,SW,231,0.0,2.0,78,0.00,,,0.00,weatherlink.com 1.10,2013-02-08 23:17:00,
2013-02-08 15:33:00,47.6,39.0,29.98,WSW,244,2.0,3.0,73,0.00,,,0.00,weatherlink.com 1.10,2013-02-08 23:33:00,
2013-02-08 15:47:00,47.0,39.0,29.98,WSW,255,0.0,3.0,74,0.00,,,0.00,weatherlink.com 1.10,2013-02-08 23:47:00,
2013-02-08 16:02:00,46.6,39.0,29.98,WSW,254,0.0,3.0,75,0.00,,,0.00,weatherlink.com 1.10,2013-02-09 00:02:00,
2013-02-08 16:17:00,46.6,39.0,29.98,SSW,197,0.0,4.0,75,0.00,,,0.00,weatherlink.com 1.10,2013-02-09 00:17:00,
2013-02-08 16:33:00,45.9,39.0,29.98,SSW,197,1.0,2.0,77,0.00,,,0.00,weatherlink.com 1.10,2013-02-09 00:33:00,
2013-02-08 16:47:00,45.7,40.0,29.98,SW,224,1.0,2.0,79,0.00,,,0.00,weatherlink.com 1.10,2013-02-09 00:47:00,
2013-02-08 17:33:00,44.3,39.0,29.99,SSW,196,0.0,5.0,82,0.00,,,0.00,weatherlink.com 1.10,2013-02-09 01:33:00,
2013-02-08 17:48:00,44.2,40.0,29.99,SW,229,0.0,3.0,84,0.00,,,0.00,weatherlink.com 1.10,2013-02-09 01:48:00,
2013-02-08 18:03:00,43.8,39.0,30.00,SSE,153,0.0,1.0,84,0.00,,,0.00,weatherlink.com 1.10,2013-02-09 02:03:00,
2013-02-08 18:18:00,43.1,39.0,30.00,SSE,153,0.0,1.0,84,0.00,,,0.00,weatherlink.com 1.10,2013-02-09 02:18:00,
2013-02-08 18:33:00,42.4,38.0,30.01,SSE,153,0.0,0.0,85,0.00,,,0.00,weatherlink.com 1.10,2013-02-09 02:33:00,
2013-02-08 18:48:00,41.9,38.0,30.02,SSE,153,0.0,0.0,86,0.00,,,0.00,weatherlink.com 1.10,2013-02-09 02:48:00,
2013-02-08 19:03:00,41.3,38.0,30.02,SSE,153,0.0,0.0,87,0.00,,,0.00,weatherlink.com 1.10,2013-02-09 03:03:00,
2013-02-08 19:18:00,40.8,38.0,30.02,SSE,153,1.0,1.0,88,0.00,,,0.00,weatherlink.com 1.10,2013-02-09 03:18:00,
2013-02-08 19:48:00,39.4,37.0,30.03,SSE,153,0.0,0.0,89,0.00,,,0.00,weatherlink.com 1.10,2013-02-09 03:48:00,
2013-02-08 20:03:00,39.1,37.0,30.03,SSE,154,0.0,2.0,90,0.00,,,0.00,weatherlink.com 1.10,2013-02-09 04:03:00,
2013-02-08 20:18:00,38.6,36.0,30.03,SE,126,0.0,2.0,90,0.00,,,0.00,weatherlink.com 1.10,2013-02-09 04:18:00,
2013-02-08 20:33:00,38.8,36.0,30.03,SE,126,0.0,1.0,90,0.00,,,0.00,weatherlink.com 1.10,2013-02-09 04:33:00,
2013-02-08 20:48:00,39.1,36.0,30.03,NNW,337,0.0,4.0,89,0.00,,,0.00,weatherlink.com 1.10,2013-02-09 04:48:00,
2013-02-08 21:03:00,39.7,35.0,30.03,SSW,196,0.0,3.0,84,0.00,,,0.00,weatherlink.com 1.10,2013-02-09 05:03:00,
2013-02-08 21:18:00,41.3,35.0,30.03,NE,44,0.0,3.0,79,0.00,,,0.00,weatherlink.com 1.10,2013-02-09 05:18:00,
2013-02-08 21:33:00,41.9,34.0,30.03,South,181,0.0,3.0,73,0.00,,,0.00,weatherlink.com 1.10,2013-02-09 05:33:00,
2013-02-08 21:48:00,41.6,35.0,30.03,SW,216,0.0,2.0,76,0.00,,,0.00,weatherlink.com 1.10,2013-02-09 05:48:00,
2013-02-08 22:03:00,41.8,33.0,30.03,South,179,0.0,3.0,72,0.00,,,0.00,weatherlink.com 1.10,2013-02-09 06:03:00,
2013-02-08 22:18:00,41.6,33.0,30.03,SW,227,3.0,6.0,71,0.00,,,0.00,weatherlink.com 1.10,2013-02-09 06:18:00,
2013-02-08 22:33:00,42.4,33.0,30.04,SSW,211,2.0,2.0,70,0.00,,,0.00,weatherlink.com 1.10,2013-02-09 06:33:00,
2013-02-08 22:48:00,41.3,35.0,30.05,SW,221,0.0,2.0,77,0.00,,,0.00,weatherlink.com 1.10,2013-02-09 06:48:00,
2013-02-08 23:03:00,40.1,34.0,30.04,SW,221,0.0,1.0,80,0.00,,,0.00,weatherlink.com 1.10,2013-02-09 07:03:00,
2013-02-08 23:18:00,38.7,33.0,30.05,SW,221,0.0,0.0,81,0.00,,,0.00,weatherlink.com 1.10,2013-02-09 07:18:00,
2013-02-08 23:33:00,37.5,33.0,30.05,SW,221,0.0,0.0,83,0.00,,,0.00,weatherlink.com 1.10,2013-02-09 07:33:00,
2013-02-08 23:48:00,37.1,33.0,30.05,SW,221,0.0,1.0,85,0.00,,,0.00,weatherlink.com 1.10,2013-02-09 07:48:00,